sensor_id;sensor_type;location;lat;lon;timestamp;pressure;altitude;pressure_sealevel;temperature
71564;BMP180;59391;52.504;13.438;2022-10-03T00:01:08;101365.00;;;15.80
71564;BMP180;59391;52.504;13.438;2022-10-03T00:07:20;101377.00;;;15.90
71564;BMP180;59391;52.504;13.438;2022-10-03T00:10:01;101378.00;;;15.80
71564;BMP180;59391;52.504;13.438;2022-10-03T00:13:09;101377.00;;;15.90
71564;BMP180;59391;52.504;13.438;2022-10-03T00:15:59;101385.00;;;15.90
71564;BMP180;59391;52.504;13.438;2022-10-03T00:18:53;101392.00;;;15.90
71564;BMP180;59391;52.504;13.438;2022-10-03T00:21:46;101387.00;;;15.90
71564;BMP180;59391;52.504;13.438;2022-10-03T00:24:41;101394.00;;;15.90
71564;BMP180;59391;52.504;13.438;2022-10-03T00:27:26;101393.00;;;16.00
71564;BMP180;59391;52.504;13.438;2022-10-03T00:30:20;101393.00;;;16.00
71564;BMP180;59391;52.504;13.438;2022-10-03T00:33:18;101404.00;;;16.00
71564;BMP180;59391;52.504;13.438;2022-10-03T00:35:59;101397.00;;;16.00
71564;BMP180;59391;52.504;13.438;2022-10-03T00:42:15;101402.00;;;16.10
71564;BMP180;59391;52.504;13.438;2022-10-03T00:58:09;101402.00;;;16.00
71564;BMP180;59391;52.504;13.438;2022-10-03T01:00:48;101424.00;;;16.00
71564;BMP180;59391;52.504;13.438;2022-10-03T01:03:34;101401.00;;;16.00
71564;BMP180;59391;52.504;13.438;2022-10-03T01:06:27;101428.00;;;16.00
71564;BMP180;59391;52.504;13.438;2022-10-03T01:12:43;101416.00;;;16.00
71564;BMP180;59391;52.504;13.438;2022-10-03T01:18:38;101422.00;;;16.00
71564;BMP180;59391;52.504;13.438;2022-10-03T01:24:24;101423.00;;;16.00
71564;BMP180;59391;52.504;13.438;2022-10-03T01:27:06;101424.00;;;15.90
71564;BMP180;59391;52.504;13.438;2022-10-03T01:29:49;101425.00;;;15.90
71564;BMP180;59391;52.504;13.438;2022-10-03T01:32:46;101427.00;;;15.90
71564;BMP180;59391;52.504;13.438;2022-10-03T01:36:02;101436.00;;;15.90
71564;BMP180;59391;52.504;13.438;2022-10-03T01:38:41;101439.00;;;15.90
71564;BMP180;59391;52.504;13.438;2022-10-03T01:41:53;101425.00;;;15.90
71564;BMP180;59391;52.504;13.438;2022-10-03T01:45:02;101424.00;;;15.90
71564;BMP180;59391;52.504;13.438;2022-10-03T01:48:01;101426.00;;;15.90
71564;BMP180;59391;52.504;13.438;2022-10-03T01:51:04;101441.00;;;16.00
71564;BMP180;59391;52.504;13.438;2022-10-03T01:57:13;101427.00;;;15.90
71564;BMP180;59391;52.504;13.438;2022-10-03T02:00:04;101433.00;;;15.90
71564;BMP180;59391;52.504;13.438;2022-10-03T02:02:44;101437.00;;;15.90
71564;BMP180;59391;52.504;13.438;2022-10-03T02:05:36;101413.00;;;15.90
71564;BMP180;59391;52.504;13.438;2022-10-03T02:08:27;101443.00;;;16.00
71564;BMP180;59391;52.504;13.438;2022-10-03T02:11:02;101445.00;;;16.00
71564;BMP180;59391;52.504;13.438;2022-10-03T02:13:49;101449.00;;;16.00
71564;BMP180;59391;52.504;13.438;2022-10-03T02:16:44;101455.00;;;16.00
71564;BMP180;59391;52.504;13.438;2022-10-03T02:19:29;101449.00;;;16.00
71564;BMP180;59391;52.504;13.438;2022-10-03T02:21:59;101441.00;;;16.10
71564;BMP180;59391;52.504;13.438;2022-10-03T02:24:51;101445.00;;;16.10
71564;BMP180;59391;52.504;13.438;2022-10-03T02:27:46;101434.00;;;16.10
71564;BMP180;59391;52.504;13.438;2022-10-03T02:31:22;101451.00;;;16.10
71564;BMP180;59391;52.504;13.438;2022-10-03T02:34:21;101443.00;;;16.10
71564;BMP180;59391;52.504;13.438;2022-10-03T02:37:35;101451.00;;;16.10
71564;BMP180;59391;52.504;13.438;2022-10-03T02:50:00;101453.00;;;16.00
71564;BMP180;59391;52.504;13.438;2022-10-03T02:53:12;101463.00;;;16.00
71564;BMP180;59391;52.504;13.438;2022-10-03T03:05:05;101466.00;;;16.10
71564;BMP180;59391;52.504;13.438;2022-10-03T03:17:20;101477.00;;;16.10
71564;BMP180;59391;52.504;13.438;2022-10-03T03:20:40;101481.00;;;16.10
71564;BMP180;59391;52.504;13.438;2022-10-03T03:23:44;101486.00;;;16.10
71564;BMP180;59391;52.504;13.438;2022-10-03T03:29:47;101470.00;;;16.20
71564;BMP180;59391;52.504;13.438;2022-10-03T03:32:41;101479.00;;;16.20
71564;BMP180;59391;52.504;13.438;2022-10-03T03:35:47;101460.00;;;16.20
71564;BMP180;59391;52.504;13.438;2022-10-03T03:38:49;101487.00;;;16.20
71564;BMP180;59391;52.504;13.438;2022-10-03T03:41:54;101486.00;;;16.20
71564;BMP180;59391;52.504;13.438;2022-10-03T03:44:52;101481.00;;;16.20
71564;BMP180;59391;52.504;13.438;2022-10-03T03:48:05;101500.00;;;16.20
71564;BMP180;59391;52.504;13.438;2022-10-03T03:51:33;101499.00;;;16.20
71564;BMP180;59391;52.504;13.438;2022-10-03T04:00:13;101507.00;;;16.20
71564;BMP180;59391;52.504;13.438;2022-10-03T04:03:13;101513.00;;;16.20
71564;BMP180;59391;52.504;13.438;2022-10-03T04:09:39;101513.00;;;16.20
71564;BMP180;59391;52.504;13.438;2022-10-03T04:18:58;101513.00;;;16.10
71564;BMP180;59391;52.504;13.438;2022-10-03T04:22:08;101522.00;;;16.10
71564;BMP180;59391;52.504;13.438;2022-10-03T04:28:29;101522.00;;;16.10
71564;BMP180;59391;52.504;13.438;2022-10-03T04:31:43;101527.00;;;16.10
71564;BMP180;59391;52.504;13.438;2022-10-03T04:35:15;101522.00;;;16.10
71564;BMP180;59391;52.504;13.438;2022-10-03T04:40:25;101502.00;;;16.10
71564;BMP180;59391;52.504;13.438;2022-10-03T04:43:17;101527.00;;;16.10
71564;BMP180;59391;52.504;13.438;2022-10-03T04:48:40;101520.00;;;16.10
71564;BMP180;59391;52.504;13.438;2022-10-03T04:51:51;101515.00;;;16.00
71564;BMP180;59391;52.504;13.438;2022-10-03T04:54:33;101523.00;;;16.10
71564;BMP180;59391;52.504;13.438;2022-10-03T04:57:48;101533.00;;;16.10
71564;BMP180;59391;52.504;13.438;2022-10-03T05:00:23;101531.00;;;16.10
71564;BMP180;59391;52.504;13.438;2022-10-03T05:03:10;101536.00;;;16.10
71564;BMP180;59391;52.504;13.438;2022-10-03T05:05:42;101527.00;;;16.20
71564;BMP180;59391;52.504;13.438;2022-10-03T05:11:38;101542.00;;;16.10
71564;BMP180;59391;52.504;13.438;2022-10-03T05:17:23;101543.00;;;16.10
71564;BMP180;59391;52.504;13.438;2022-10-03T05:23:17;101545.00;;;16.10
71564;BMP180;59391;52.504;13.438;2022-10-03T05:26:24;101554.00;;;16.10
71564;BMP180;59391;52.504;13.438;2022-10-03T05:29:36;101555.00;;;16.10
71564;BMP180;59391;52.504;13.438;2022-10-03T05:32:24;101522.00;;;16.10
71564;BMP180;59391;52.504;13.438;2022-10-03T05:38:46;101530.00;;;16.10
71564;BMP180;59391;52.504;13.438;2022-10-03T05:41:32;101551.00;;;16.10
71564;BMP180;59391;52.504;13.438;2022-10-03T05:47:21;101572.00;;;16.20
71564;BMP180;59391;52.504;13.438;2022-10-03T05:56:24;101569.00;;;16.20
71564;BMP180;59391;52.504;13.438;2022-10-03T05:59:17;101574.00;;;16.20
71564;BMP180;59391;52.504;13.438;2022-10-03T06:11:37;101582.00;;;16.20
71564;BMP180;59391;52.504;13.438;2022-10-03T06:15:28;101593.00;;;16.20
71564;BMP180;59391;52.504;13.438;2022-10-03T06:40:03;101627.00;;;16.20
71564;BMP180;59391;52.504;13.438;2022-10-03T06:49:32;101641.00;;;16.30
71564;BMP180;59391;52.504;13.438;2022-10-03T07:05:17;101635.00;;;16.50
71564;BMP180;59391;52.504;13.438;2022-10-03T07:11:23;101640.00;;;16.60
71564;BMP180;59391;52.504;13.438;2022-10-03T07:17:53;101641.00;;;16.70
71564;BMP180;59391;52.504;13.438;2022-10-03T07:21:03;101657.00;;;16.70
71564;BMP180;59391;52.504;13.438;2022-10-03T07:24:18;101636.00;;;16.80
71564;BMP180;59391;52.504;13.438;2022-10-03T07:27:20;101663.00;;;16.80
71564;BMP180;59391;52.504;13.438;2022-10-03T07:30:07;101658.00;;;16.90
71564;BMP180;59391;52.504;13.438;2022-10-03T07:36:21;101663.00;;;16.90
71564;BMP180;59391;52.504;13.438;2022-10-03T07:42:45;101665.00;;;17.00
71564;BMP180;59391;52.504;13.438;2022-10-03T07:45:45;101674.00;;;17.10
71564;BMP180;59391;52.504;13.438;2022-10-03T07:49:20;101660.00;;;17.20
71564;BMP180;59391;52.504;13.438;2022-10-03T07:55:39;101668.00;;;17.30
71564;BMP180;59391;52.504;13.438;2022-10-03T07:58:29;101675.00;;;17.30
71564;BMP180;59391;52.504;13.438;2022-10-03T08:01:42;101696.00;;;17.30
71564;BMP180;59391;52.504;13.438;2022-10-03T08:07:52;101697.00;;;17.40
71564;BMP180;59391;52.504;13.438;2022-10-03T08:17:29;101700.00;;;17.40
71564;BMP180;59391;52.504;13.438;2022-10-03T08:20:36;101709.00;;;17.40
71564;BMP180;59391;52.504;13.438;2022-10-03T08:32:55;101715.00;;;17.60
71564;BMP180;59391;52.504;13.438;2022-10-03T08:39:10;101732.00;;;17.70
71564;BMP180;59391;52.504;13.438;2022-10-03T08:48:38;101724.00;;;17.80
71564;BMP180;59391;52.504;13.438;2022-10-03T08:51:38;101724.00;;;17.80
71564;BMP180;59391;52.504;13.438;2022-10-03T08:54:29;101723.00;;;17.90
71564;BMP180;59391;52.504;13.438;2022-10-03T09:00:22;101721.00;;;18.00
71564;BMP180;59391;52.504;13.438;2022-10-03T09:03:47;101737.00;;;18.20
71564;BMP180;59391;52.504;13.438;2022-10-03T09:06:43;101741.00;;;18.30
71564;BMP180;59391;52.504;13.438;2022-10-03T09:10:04;101736.00;;;18.40
71564;BMP180;59391;52.504;13.438;2022-10-03T09:16:56;101744.00;;;18.50
71564;BMP180;59391;52.504;13.438;2022-10-03T09:32:10;101739.00;;;18.90
71564;BMP180;59391;52.504;13.438;2022-10-03T09:35:19;101749.00;;;19.10
71564;BMP180;59391;52.504;13.438;2022-10-03T09:59:33;101754.00;;;21.30
71564;BMP180;59391;52.504;13.438;2022-10-03T10:02:31;101750.00;;;21.40
71564;BMP180;59391;52.504;13.438;2022-10-03T10:24:10;101758.00;;;20.50
71564;BMP180;59391;52.504;13.438;2022-10-03T10:27:37;101745.00;;;21.00
71564;BMP180;59391;52.504;13.438;2022-10-03T10:35:45;101745.00;;;22.80
71564;BMP180;59391;52.504;13.438;2022-10-03T10:48:05;101741.00;;;24.00
71564;BMP180;59391;52.504;13.438;2022-10-03T11:11:33;101739.00;;;23.90
71564;BMP180;59391;52.504;13.438;2022-10-03T11:20:53;101718.00;;;23.20
71564;BMP180;59391;52.504;13.438;2022-10-03T11:39:40;101760.00;;;22.10
71564;BMP180;59391;52.504;13.438;2022-10-03T11:42:28;101757.00;;;21.90
71564;BMP180;59391;52.504;13.438;2022-10-03T11:45:14;101744.00;;;21.90
71564;BMP180;59391;52.504;13.438;2022-10-03T11:47:51;101741.00;;;22.50
71564;BMP180;59391;52.504;13.438;2022-10-03T11:50:35;101753.00;;;22.80
71564;BMP180;59391;52.504;13.438;2022-10-03T11:53:38;101768.00;;;22.70
71564;BMP180;59391;52.504;13.438;2022-10-03T11:56:19;101757.00;;;22.50
71564;BMP180;59391;52.504;13.438;2022-10-03T12:02:52;101763.00;;;22.20
71564;BMP180;59391;52.504;13.438;2022-10-03T12:05:51;101744.00;;;22.10
71564;BMP180;59391;52.504;13.438;2022-10-03T12:08:43;101749.00;;;22.50
71564;BMP180;59391;52.504;13.438;2022-10-03T12:11:35;101749.00;;;22.60
71564;BMP180;59391;52.504;13.438;2022-10-03T12:14:28;101751.00;;;22.50
71564;BMP180;59391;52.504;13.438;2022-10-03T12:17:39;101738.00;;;22.50
71564;BMP180;59391;52.504;13.438;2022-10-03T12:23:49;101727.00;;;22.50
71564;BMP180;59391;52.504;13.438;2022-10-03T12:26:40;101733.00;;;22.60
71564;BMP180;59391;52.504;13.438;2022-10-03T12:29:12;101728.00;;;22.80
71564;BMP180;59391;52.504;13.438;2022-10-03T12:32:08;101710.00;;;22.70
71564;BMP180;59391;52.504;13.438;2022-10-03T12:34:59;101755.00;;;22.60
71564;BMP180;59391;52.504;13.438;2022-10-03T12:37:57;101748.00;;;22.30
71564;BMP180;59391;52.504;13.438;2022-10-03T12:40:37;101750.00;;;22.20
71564;BMP180;59391;52.504;13.438;2022-10-03T12:44:03;101706.00;;;22.20
71564;BMP180;59391;52.504;13.438;2022-10-03T12:47:07;101739.00;;;22.20
71564;BMP180;59391;52.504;13.438;2022-10-03T12:53:50;101732.00;;;22.30
71564;BMP180;59391;52.504;13.438;2022-10-03T12:59:36;101716.00;;;22.10
71564;BMP180;59391;52.504;13.438;2022-10-03T13:02:25;101728.00;;;22.10
71564;BMP180;59391;52.504;13.438;2022-10-03T13:05:23;101716.00;;;22.00
71564;BMP180;59391;52.504;13.438;2022-10-03T13:10:41;101734.00;;;22.00
71564;BMP180;59391;52.504;13.438;2022-10-03T13:13:51;101731.00;;;21.90
71564;BMP180;59391;52.504;13.438;2022-10-03T13:16:34;101737.00;;;22.00
71564;BMP180;59391;52.504;13.438;2022-10-03T13:19:29;101718.00;;;22.00
71564;BMP180;59391;52.504;13.438;2022-10-03T13:22:32;101725.00;;;22.10
71564;BMP180;59391;52.504;13.438;2022-10-03T13:25:38;101720.00;;;22.20
71564;BMP180;59391;52.504;13.438;2022-10-03T13:28:16;101741.00;;;22.30
71564;BMP180;59391;52.504;13.438;2022-10-03T13:30:55;101712.00;;;22.30
71564;BMP180;59391;52.504;13.438;2022-10-03T13:33:31;101724.00;;;22.40
71564;BMP180;59391;52.504;13.438;2022-10-03T13:36:20;101735.00;;;22.30
71564;BMP180;59391;52.504;13.438;2022-10-03T13:42:10;101724.00;;;22.20
71564;BMP180;59391;52.504;13.438;2022-10-03T13:44:55;101731.00;;;22.20
71564;BMP180;59391;52.504;13.438;2022-10-03T13:47:49;101700.00;;;22.10
71564;BMP180;59391;52.504;13.438;2022-10-03T13:50:40;101689.00;;;22.00
71564;BMP180;59391;52.504;13.438;2022-10-03T13:53:30;101732.00;;;21.90
71564;BMP180;59391;52.504;13.438;2022-10-03T13:59:45;101731.00;;;21.90
71564;BMP180;59391;52.504;13.438;2022-10-03T14:05:59;101725.00;;;22.20
71564;BMP180;59391;52.504;13.438;2022-10-03T14:09:20;101735.00;;;22.40
71564;BMP180;59391;52.504;13.438;2022-10-03T14:14:47;101737.00;;;22.40
71564;BMP180;59391;52.504;13.438;2022-10-03T14:17:45;101709.00;;;22.40
71564;BMP180;59391;52.504;13.438;2022-10-03T14:20:39;101738.00;;;22.40
71564;BMP180;59391;52.504;13.438;2022-10-03T14:23:36;101733.00;;;22.40
71564;BMP180;59391;52.504;13.438;2022-10-03T14:26:29;101736.00;;;22.30
71564;BMP180;59391;52.504;13.438;2022-10-03T14:29:50;101728.00;;;22.20
71564;BMP180;59391;52.504;13.438;2022-10-03T14:32:38;101684.00;;;22.10
71564;BMP180;59391;52.504;13.438;2022-10-03T14:35:36;101729.00;;;22.00
71564;BMP180;59391;52.504;13.438;2022-10-03T14:38:14;101725.00;;;21.90
71564;BMP180;59391;52.504;13.438;2022-10-03T14:40:50;101742.00;;;21.80
71564;BMP180;59391;52.504;13.438;2022-10-03T14:43:27;101734.00;;;21.80
71564;BMP180;59391;52.504;13.438;2022-10-03T14:45:58;101736.00;;;21.70
71564;BMP180;59391;52.504;13.438;2022-10-03T14:48:36;101718.00;;;21.70
71564;BMP180;59391;52.504;13.438;2022-10-03T14:53:55;101715.00;;;21.50
71564;BMP180;59391;52.504;13.438;2022-10-03T14:56:22;101735.00;;;21.40
71564;BMP180;59391;52.504;13.438;2022-10-03T14:58:56;101718.00;;;21.30
71564;BMP180;59391;52.504;13.438;2022-10-03T15:01:25;101709.00;;;21.30
71564;BMP180;59391;52.504;13.438;2022-10-03T15:06:56;101731.00;;;21.10
71564;BMP180;59391;52.504;13.438;2022-10-03T15:12:30;101714.00;;;21.00
71564;BMP180;59391;52.504;13.438;2022-10-03T15:17:36;101712.00;;;20.90
71564;BMP180;59391;52.504;13.438;2022-10-03T15:20:10;101719.00;;;20.90
71564;BMP180;59391;52.504;13.438;2022-10-03T15:22:40;101714.00;;;20.80
71564;BMP180;59391;52.504;13.438;2022-10-03T15:25:27;101719.00;;;20.80
71564;BMP180;59391;52.504;13.438;2022-10-03T15:27:57;101710.00;;;20.60
71564;BMP180;59391;52.504;13.438;2022-10-03T15:30:34;101719.00;;;20.70
71564;BMP180;59391;52.504;13.438;2022-10-03T15:33:16;101726.00;;;20.60
71564;BMP180;59391;52.504;13.438;2022-10-03T15:35:47;101739.00;;;20.60
71564;BMP180;59391;52.504;13.438;2022-10-03T15:38:27;101729.00;;;20.60
71564;BMP180;59391;52.504;13.438;2022-10-03T15:44:02;101716.00;;;20.50
71564;BMP180;59391;52.504;13.438;2022-10-03T15:46:44;101727.00;;;20.50
71564;BMP180;59391;52.504;13.438;2022-10-03T15:49:40;101730.00;;;20.40
71564;BMP180;59391;52.504;13.438;2022-10-03T15:52:25;101726.00;;;20.40
71564;BMP180;59391;52.504;13.438;2022-10-03T15:54:58;101728.00;;;20.40
71564;BMP180;59391;52.504;13.438;2022-10-03T15:57:35;101725.00;;;20.30
71564;BMP180;59391;52.504;13.438;2022-10-03T16:00:05;101718.00;;;20.30
71564;BMP180;59391;52.504;13.438;2022-10-03T16:02:44;101724.00;;;20.30
71564;BMP180;59391;52.504;13.438;2022-10-03T16:05:21;101726.00;;;20.30
71564;BMP180;59391;52.504;13.438;2022-10-03T16:07:57;101719.00;;;20.20
71564;BMP180;59391;52.504;13.438;2022-10-03T16:10:38;101725.00;;;20.20
71564;BMP180;59391;52.504;13.438;2022-10-03T16:14:01;101719.00;;;20.10
71564;BMP180;59391;52.504;13.438;2022-10-03T16:16:54;101727.00;;;20.10
71564;BMP180;59391;52.504;13.438;2022-10-03T16:19:26;101733.00;;;20.10
71564;BMP180;59391;52.504;13.438;2022-10-03T16:22:11;101739.00;;;20.10
71564;BMP180;59391;52.504;13.438;2022-10-03T16:25:00;101737.00;;;20.10
71564;BMP180;59391;52.504;13.438;2022-10-03T16:27:30;101717.00;;;20.10
71564;BMP180;59391;52.504;13.438;2022-10-03T16:33:01;101713.00;;;19.90
71564;BMP180;59391;52.504;13.438;2022-10-03T16:35:57;101729.00;;;19.80
71564;BMP180;59391;52.504;13.438;2022-10-03T16:38:44;101737.00;;;19.80
71564;BMP180;59391;52.504;13.438;2022-10-03T16:41:26;101726.00;;;19.80
71564;BMP180;59391;52.504;13.438;2022-10-03T16:44:09;101731.00;;;19.70
71564;BMP180;59391;52.504;13.438;2022-10-03T16:46:44;101726.00;;;19.70
71564;BMP180;59391;52.504;13.438;2022-10-03T16:49:45;101731.00;;;19.60
71564;BMP180;59391;52.504;13.438;2022-10-03T16:52:40;101728.00;;;19.70
71564;BMP180;59391;52.504;13.438;2022-10-03T16:55:22;101732.00;;;19.70
71564;BMP180;59391;52.504;13.438;2022-10-03T17:00:51;101735.00;;;19.70
71564;BMP180;59391;52.504;13.438;2022-10-03T17:03:44;101714.00;;;19.60
71564;BMP180;59391;52.504;13.438;2022-10-03T17:06:21;101688.00;;;19.60
71564;BMP180;59391;52.504;13.438;2022-10-03T17:08:52;101726.00;;;19.60
71564;BMP180;59391;52.504;13.438;2022-10-03T17:13:59;101734.00;;;19.60
71564;BMP180;59391;52.504;13.438;2022-10-03T17:17:04;101689.00;;;19.50
71564;BMP180;59391;52.504;13.438;2022-10-03T17:19:39;101671.00;;;19.50
71564;BMP180;59391;52.504;13.438;2022-10-03T17:22:21;101744.00;;;19.20
71564;BMP180;59391;52.504;13.438;2022-10-03T17:27:38;101731.00;;;19.40
71564;BMP180;59391;52.504;13.438;2022-10-03T17:30:23;101726.00;;;19.40
71564;BMP180;59391;52.504;13.438;2022-10-03T17:33:27;101720.00;;;19.40
71564;BMP180;59391;52.504;13.438;2022-10-03T17:39:08;101737.00;;;19.30
71564;BMP180;59391;52.504;13.438;2022-10-03T17:42:03;101708.00;;;19.20
71564;BMP180;59391;52.504;13.438;2022-10-03T17:44:52;101687.00;;;19.10
71564;BMP180;59391;52.504;13.438;2022-10-03T17:47:55;101737.00;;;19.20
71564;BMP180;59391;52.504;13.438;2022-10-03T17:53:35;101731.00;;;19.10
71564;BMP180;59391;52.504;13.438;2022-10-03T17:56:12;101727.00;;;19.10
71564;BMP180;59391;52.504;13.438;2022-10-03T17:58:46;101729.00;;;19.10
71564;BMP180;59391;52.504;13.438;2022-10-03T18:01:18;101714.00;;;19.10
71564;BMP180;59391;52.504;13.438;2022-10-03T18:03:54;101735.00;;;19.00
71564;BMP180;59391;52.504;13.438;2022-10-03T18:06:41;101715.00;;;19.00
71564;BMP180;59391;52.504;13.438;2022-10-03T18:09:25;101742.00;;;19.00
71564;BMP180;59391;52.504;13.438;2022-10-03T18:11:58;101671.00;;;19.00
71564;BMP180;59391;52.504;13.438;2022-10-03T18:20:56;101724.00;;;18.90
71564;BMP180;59391;52.504;13.438;2022-10-03T18:26:12;101722.00;;;18.90
71564;BMP180;59391;52.504;13.438;2022-10-03T18:32:11;101721.00;;;18.90
71564;BMP180;59391;52.504;13.438;2022-10-03T18:35:01;101724.00;;;18.80
71564;BMP180;59391;52.504;13.438;2022-10-03T18:39:57;101701.00;;;18.80
71564;BMP180;59391;52.504;13.438;2022-10-03T18:42:26;101702.00;;;18.80
71564;BMP180;59391;52.504;13.438;2022-10-03T18:44:58;101709.00;;;18.80
71564;BMP180;59391;52.504;13.438;2022-10-03T18:47:43;101728.00;;;18.70
71564;BMP180;59391;52.504;13.438;2022-10-03T18:50:28;101724.00;;;18.70
71564;BMP180;59391;52.504;13.438;2022-10-03T18:56:00;101686.00;;;18.60
71564;BMP180;59391;52.504;13.438;2022-10-03T18:58:47;101738.00;;;18.60
71564;BMP180;59391;52.504;13.438;2022-10-03T19:01:26;101736.00;;;18.50
71564;BMP180;59391;52.504;13.438;2022-10-03T19:04:04;101741.00;;;18.50
71564;BMP180;59391;52.504;13.438;2022-10-03T19:06:46;101739.00;;;18.50
71564;BMP180;59391;52.504;13.438;2022-10-03T19:09:34;101737.00;;;18.50
71564;BMP180;59391;52.504;13.438;2022-10-03T19:12:26;101722.00;;;18.40
71564;BMP180;59391;52.504;13.438;2022-10-03T19:15:37;101739.00;;;18.30
71564;BMP180;59391;52.504;13.438;2022-10-03T19:18:43;101709.00;;;18.30
71564;BMP180;59391;52.504;13.438;2022-10-03T19:21:26;101692.00;;;18.40
71564;BMP180;59391;52.504;13.438;2022-10-03T19:24:17;101668.00;;;18.40
71564;BMP180;59391;52.504;13.438;2022-10-03T19:27:39;101736.00;;;18.40
71564;BMP180;59391;52.504;13.438;2022-10-03T19:30:11;101692.00;;;18.40
71564;BMP180;59391;52.504;13.438;2022-10-03T19:33:14;101718.00;;;18.40
71564;BMP180;59391;52.504;13.438;2022-10-03T19:35:56;101693.00;;;18.30
71564;BMP180;59391;52.504;13.438;2022-10-03T19:38:44;101684.00;;;18.40
71564;BMP180;59391;52.504;13.438;2022-10-03T19:41:29;101745.00;;;18.30
71564;BMP180;59391;52.504;13.438;2022-10-03T19:44:23;101763.00;;;18.10
71564;BMP180;59391;52.504;13.438;2022-10-03T19:47:50;101752.00;;;18.30
71564;BMP180;59391;52.504;13.438;2022-10-03T19:50:43;101700.00;;;18.10
71564;BMP180;59391;52.504;13.438;2022-10-03T19:53:18;101716.00;;;18.20
71564;BMP180;59391;52.504;13.438;2022-10-03T19:55:49;101704.00;;;18.20
71564;BMP180;59391;52.504;13.438;2022-10-03T19:58:22;101728.00;;;18.20
71564;BMP180;59391;52.504;13.438;2022-10-03T20:01:00;101690.00;;;18.20
71564;BMP180;59391;52.504;13.438;2022-10-03T20:03:49;101713.00;;;18.10
71564;BMP180;59391;52.504;13.438;2022-10-03T20:06:46;101748.00;;;18.20
71564;BMP180;59391;52.504;13.438;2022-10-03T20:09:53;101746.00;;;18.20
71564;BMP180;59391;52.504;13.438;2022-10-03T20:12:26;101678.00;;;18.20
71564;BMP180;59391;52.504;13.438;2022-10-03T20:15:35;101734.00;;;18.20
71564;BMP180;59391;52.504;13.438;2022-10-03T20:21:19;101738.00;;;18.20
71564;BMP180;59391;52.504;13.438;2022-10-03T20:23:55;101707.00;;;18.20
71564;BMP180;59391;52.504;13.438;2022-10-03T20:26:45;101713.00;;;18.20
71564;BMP180;59391;52.504;13.438;2022-10-03T20:32:41;101675.00;;;18.10
71564;BMP180;59391;52.504;13.438;2022-10-03T20:35:21;101680.00;;;18.20
71564;BMP180;59391;52.504;13.438;2022-10-03T20:41:08;101746.00;;;18.10
71564;BMP180;59391;52.504;13.438;2022-10-03T20:46:35;101736.00;;;18.20
71564;BMP180;59391;52.504;13.438;2022-10-03T20:52:06;101750.00;;;18.10
71564;BMP180;59391;52.504;13.438;2022-10-03T20:55:22;101704.00;;;18.10
71564;BMP180;59391;52.504;13.438;2022-10-03T21:01:07;101689.00;;;18.10
71564;BMP180;59391;52.504;13.438;2022-10-03T21:04:09;101738.00;;;18.10
71564;BMP180;59391;52.504;13.438;2022-10-03T21:10:21;101749.00;;;18.10
71564;BMP180;59391;52.504;13.438;2022-10-03T21:13:37;101681.00;;;18.00
71564;BMP180;59391;52.504;13.438;2022-10-03T21:16:26;101717.00;;;17.90
71564;BMP180;59391;52.504;13.438;2022-10-03T21:19:43;101750.00;;;18.00
71564;BMP180;59391;52.504;13.438;2022-10-03T21:22:20;101681.00;;;18.00
71564;BMP180;59391;52.504;13.438;2022-10-03T21:24:59;101726.00;;;18.00
71564;BMP180;59391;52.504;13.438;2022-10-03T21:27:27;101687.00;;;18.00
71564;BMP180;59391;52.504;13.438;2022-10-03T21:30:13;101715.00;;;18.00
71564;BMP180;59391;52.504;13.438;2022-10-03T21:33:09;101744.00;;;18.00
71564;BMP180;59391;52.504;13.438;2022-10-03T21:35:43;101678.00;;;18.00
71564;BMP180;59391;52.504;13.438;2022-10-03T21:38:30;101651.00;;;18.00
71564;BMP180;59391;52.504;13.438;2022-10-03T21:41:24;101733.00;;;18.00
71564;BMP180;59391;52.504;13.438;2022-10-03T21:44:09;101693.00;;;17.90
71564;BMP180;59391;52.504;13.438;2022-10-03T21:47:23;101668.00;;;18.00
71564;BMP180;59391;52.504;13.438;2022-10-03T21:50:05;101735.00;;;18.00
71564;BMP180;59391;52.504;13.438;2022-10-03T21:53:06;101721.00;;;18.00
71564;BMP180;59391;52.504;13.438;2022-10-03T22:05:25;101722.00;;;17.90
71564;BMP180;59391;52.504;13.438;2022-10-03T22:08:31;101706.00;;;17.90
71564;BMP180;59391;52.504;13.438;2022-10-03T22:11:31;101699.00;;;17.90
71564;BMP180;59391;52.504;13.438;2022-10-03T22:14:51;101724.00;;;17.90
71564;BMP180;59391;52.504;13.438;2022-10-03T22:17:49;101726.00;;;17.90
71564;BMP180;59391;52.504;13.438;2022-10-03T22:20:57;101624.00;;;17.90
71564;BMP180;59391;52.504;13.438;2022-10-03T22:23:53;101646.00;;;17.90
71564;BMP180;59391;52.504;13.438;2022-10-03T22:26:40;101690.00;;;17.90
71564;BMP180;59391;52.504;13.438;2022-10-03T22:29:47;101649.00;;;17.90
71564;BMP180;59391;52.504;13.438;2022-10-03T22:35:50;101678.00;;;17.90
71564;BMP180;59391;52.504;13.438;2022-10-03T22:38:23;101715.00;;;17.90
71564;BMP180;59391;52.504;13.438;2022-10-03T22:41:02;101621.00;;;17.90
71564;BMP180;59391;52.504;13.438;2022-10-03T22:43:29;101630.00;;;17.80
71564;BMP180;59391;52.504;13.438;2022-10-03T22:45:57;101712.00;;;18.00
71564;BMP180;59391;52.504;13.438;2022-10-03T22:48:36;101667.00;;;17.70
71564;BMP180;59391;52.504;13.438;2022-10-03T22:51:23;101633.00;;;17.90
71564;BMP180;59391;52.504;13.438;2022-10-03T22:53:58;101703.00;;;17.90
71564;BMP180;59391;52.504;13.438;2022-10-03T22:57:03;101621.00;;;17.90
71564;BMP180;59391;52.504;13.438;2022-10-03T23:00:00;101711.00;;;17.90
71564;BMP180;59391;52.504;13.438;2022-10-03T23:09:18;101710.00;;;17.90
71564;BMP180;59391;52.504;13.438;2022-10-03T23:11:50;101716.00;;;17.90
71564;BMP180;59391;52.504;13.438;2022-10-03T23:14:27;101648.00;;;17.90
71564;BMP180;59391;52.504;13.438;2022-10-03T23:18:12;101706.00;;;17.90